sensor_id;sensor_type;location;lat;lon;timestamp;P1;durP1;ratioP1;P2;durP2;ratioP2
10281;SDS011;5186;59.472;18.048;2023-06-10T00:00:09;0.40;;;0.40;;
10281;SDS011;5186;59.472;18.048;2023-06-10T00:02:38;0.87;;;0.47;;
10281;SDS011;5186;59.472;18.048;2023-06-10T00:05:04;0.73;;;0.40;;
10281;SDS011;5186;59.472;18.048;2023-06-10T00:07:30;1.87;;;0.60;;
10281;SDS011;5186;59.472;18.048;2023-06-10T00:09:55;3.20;;;1.00;;
10281;SDS011;5186;59.472;18.048;2023-06-10T00:12:22;2.93;;;1.27;;
10281;SDS011;5186;59.472;18.048;2023-06-10T00:14:47;2.80;;;1.60;;
10281;SDS011;5186;59.472;18.048;2023-06-10T00:17:15;5.93;;;1.40;;
10281;SDS011;5186;59.472;18.048;2023-06-10T00:19:41;4.30;;;1.50;;
10281;SDS011;5186;59.472;18.048;2023-06-10T00:22:06;3.73;;;1.30;;
10281;SDS011;5186;59.472;18.048;2023-06-10T00:24:33;6.27;;;2.00;;
10281;SDS011;5186;59.472;18.048;2023-06-10T00:26:59;3.20;;;1.17;;
10281;SDS011;5186;59.472;18.048;2023-06-10T00:29:25;2.07;;;0.90;;
10281;SDS011;5186;59.472;18.048;2023-06-10T00:31:50;3.37;;;1.30;;
10281;SDS011;5186;59.472;18.048;2023-06-10T00:34:18;6.03;;;1.73;;
10281;SDS011;5186;59.472;18.048;2023-06-10T00:36:44;2.63;;;1.50;;
10281;SDS011;5186;59.472;18.048;2023-06-10T00:39:10;3.00;;;1.37;;
10281;SDS011;5186;59.472;18.048;2023-06-10T00:41:36;1.93;;;0.80;;
10281;SDS011;5186;59.472;18.048;2023-06-10T00:44:01;2.30;;;0.73;;
10281;SDS011;5186;59.472;18.048;2023-06-10T00:46:27;4.20;;;1.40;;
10281;SDS011;5186;59.472;18.048;2023-06-10T00:48:53;3.50;;;1.23;;
10281;SDS011;5186;59.472;18.048;2023-06-10T00:51:18;2.27;;;1.13;;
10281;SDS011;5186;59.472;18.048;2023-06-10T00:53:44;1.97;;;1.10;;
10281;SDS011;5186;59.472;18.048;2023-06-10T00:56:10;3.83;;;1.10;;
10281;SDS011;5186;59.472;18.048;2023-06-10T00:58:36;3.07;;;1.20;;
10281;SDS011;5186;59.472;18.048;2023-06-10T01:01:03;3.70;;;0.83;;
10281;SDS011;5186;59.472;18.048;2023-06-10T01:03:29;3.60;;;1.03;;
10281;SDS011;5186;59.472;18.048;2023-06-10T01:05:57;3.00;;;1.20;;
10281;SDS011;5186;59.472;18.048;2023-06-10T01:08:38;2.20;;;1.03;;
10281;SDS011;5186;59.472;18.048;2023-06-10T01:11:14;2.10;;;0.80;;
10281;SDS011;5186;59.472;18.048;2023-06-10T01:13:53;2.77;;;1.20;;
10281;SDS011;5186;59.472;18.048;2023-06-10T01:16:23;2.87;;;1.10;;
10281;SDS011;5186;59.472;18.048;2023-06-10T01:18:49;1.33;;;0.80;;
10281;SDS011;5186;59.472;18.048;2023-06-10T01:21:22;1.70;;;1.00;;
10281;SDS011;5186;59.472;18.048;2023-06-10T01:23:54;3.57;;;1.27;;
10281;SDS011;5186;59.472;18.048;2023-06-10T01:26:22;3.93;;;1.47;;
10281;SDS011;5186;59.472;18.048;2023-06-10T01:28:54;6.93;;;1.87;;
10281;SDS011;5186;59.472;18.048;2023-06-10T01:31:43;3.67;;;1.53;;
10281;SDS011;5186;59.472;18.048;2023-06-10T01:34:26;3.40;;;1.30;;
10281;SDS011;5186;59.472;18.048;2023-06-10T01:36:54;2.70;;;0.93;;
10281;SDS011;5186;59.472;18.048;2023-06-10T01:39:23;5.40;;;1.33;;
10281;SDS011;5186;59.472;18.048;2023-06-10T01:41:49;4.53;;;1.23;;
10281;SDS011;5186;59.472;18.048;2023-06-10T01:44:20;3.40;;;1.30;;
10281;SDS011;5186;59.472;18.048;2023-06-10T01:46:47;4.83;;;1.40;;
10281;SDS011;5186;59.472;18.048;2023-06-10T01:49:13;2.43;;;1.30;;
10281;SDS011;5186;59.472;18.048;2023-06-10T01:51:38;4.23;;;1.50;;
10281;SDS011;5186;59.472;18.048;2023-06-10T01:54:04;2.77;;;1.30;;
10281;SDS011;5186;59.472;18.048;2023-06-10T01:56:31;5.23;;;1.33;;
10281;SDS011;5186;59.472;18.048;2023-06-10T01:58:56;3.30;;;1.30;;
10281;SDS011;5186;59.472;18.048;2023-06-10T02:01:24;2.30;;;1.40;;
10281;SDS011;5186;59.472;18.048;2023-06-10T02:03:50;4.40;;;1.83;;
10281;SDS011;5186;59.472;18.048;2023-06-10T02:06:16;9.03;;;2.80;;
10281;SDS011;5186;59.472;18.048;2023-06-10T02:08:42;10.87;;;3.57;;
10281;SDS011;5186;59.472;18.048;2023-06-10T02:11:07;15.70;;;5.87;;
10281;SDS011;5186;59.472;18.048;2023-06-10T02:13:33;12.17;;;4.43;;
10281;SDS011;5186;59.472;18.048;2023-06-10T02:15:59;20.63;;;8.07;;
10281;SDS011;5186;59.472;18.048;2023-06-10T02:18:25;25.43;;;8.40;;
10281;SDS011;5186;59.472;18.048;2023-06-10T02:20:53;29.90;;;9.83;;
10281;SDS011;5186;59.472;18.048;2023-06-10T02:23:18;29.03;;;11.37;;
10281;SDS011;5186;59.472;18.048;2023-06-10T02:25:44;33.23;;;11.57;;
10281;SDS011;5186;59.472;18.048;2023-06-10T02:28:10;32.40;;;10.93;;
10281;SDS011;5186;59.472;18.048;2023-06-10T02:30:38;28.90;;;10.20;;
10281;SDS011;5186;59.472;18.048;2023-06-10T02:33:07;30.67;;;11.10;;
10281;SDS011;5186;59.472;18.048;2023-06-10T02:35:38;29.10;;;11.20;;
10281;SDS011;5186;59.472;18.048;2023-06-10T02:38:04;35.97;;;11.93;;
10281;SDS011;5186;59.472;18.048;2023-06-10T02:40:30;32.77;;;11.20;;
10281;SDS011;5186;59.472;18.048;2023-06-10T02:42:56;37.77;;;12.40;;
10281;SDS011;5186;59.472;18.048;2023-06-10T02:45:23;34.13;;;12.07;;
10281;SDS011;5186;59.472;18.048;2023-06-10T02:47:48;27.83;;;10.60;;
10281;SDS011;5186;59.472;18.048;2023-06-10T02:50:14;30.87;;;10.67;;
10281;SDS011;5186;59.472;18.048;2023-06-10T02:52:40;28.43;;;11.50;;
10281;SDS011;5186;59.472;18.048;2023-06-10T02:55:06;28.00;;;10.27;;
10281;SDS011;5186;59.472;18.048;2023-06-10T02:57:32;36.23;;;11.23;;
10281;SDS011;5186;59.472;18.048;2023-06-10T02:59:57;31.20;;;10.53;;
10281;SDS011;5186;59.472;18.048;2023-06-10T03:02:23;31.30;;;12.00;;
10281;SDS011;5186;59.472;18.048;2023-06-10T03:04:53;26.37;;;9.57;;
10281;SDS011;5186;59.472;18.048;2023-06-10T03:07:22;20.33;;;7.03;;
10281;SDS011;5186;59.472;18.048;2023-06-10T03:09:48;19.13;;;7.43;;
10281;SDS011;5186;59.472;18.048;2023-06-10T03:12:14;23.50;;;7.97;;
10281;SDS011;5186;59.472;18.048;2023-06-10T03:14:40;17.70;;;6.33;;
10281;SDS011;5186;59.472;18.048;2023-06-10T03:17:06;16.33;;;5.80;;
10281;SDS011;5186;59.472;18.048;2023-06-10T03:19:33;15.53;;;5.20;;
10281;SDS011;5186;59.472;18.048;2023-06-10T03:22:12;14.13;;;5.47;;
10281;SDS011;5186;59.472;18.048;2023-06-10T03:24:39;12.70;;;5.17;;
10281;SDS011;5186;59.472;18.048;2023-06-10T03:27:06;10.67;;;4.97;;
10281;SDS011;5186;59.472;18.048;2023-06-10T03:29:32;12.97;;;5.07;;
10281;SDS011;5186;59.472;18.048;2023-06-10T03:31:58;12.50;;;4.03;;
10281;SDS011;5186;59.472;18.048;2023-06-10T03:34:23;11.60;;;4.57;;
10281;SDS011;5186;59.472;18.048;2023-06-10T03:36:49;11.13;;;4.53;;
10281;SDS011;5186;59.472;18.048;2023-06-10T03:39:15;12.77;;;5.63;;
10281;SDS011;5186;59.472;18.048;2023-06-10T03:41:41;30.73;;;11.10;;
10281;SDS011;5186;59.472;18.048;2023-06-10T03:44:06;28.93;;;10.97;;
10281;SDS011;5186;59.472;18.048;2023-06-10T03:46:32;30.70;;;9.53;;
10281;SDS011;5186;59.472;18.048;2023-06-10T03:48:57;14.20;;;4.93;;
10281;SDS011;5186;59.472;18.048;2023-06-10T03:51:25;13.73;;;4.77;;
10281;SDS011;5186;59.472;18.048;2023-06-10T03:53:51;15.60;;;4.90;;
10281;SDS011;5186;59.472;18.048;2023-06-10T03:56:17;18.13;;;6.30;;
10281;SDS011;5186;59.472;18.048;2023-06-10T03:58:42;12.63;;;5.40;;
10281;SDS011;5186;59.472;18.048;2023-06-10T04:01:08;13.83;;;5.33;;
10281;SDS011;5186;59.472;18.048;2023-06-10T04:03:33;12.80;;;4.70;;
10281;SDS011;5186;59.472;18.048;2023-06-10T04:05:59;14.40;;;5.40;;
10281;SDS011;5186;59.472;18.048;2023-06-10T04:08:25;12.47;;;5.57;;
10281;SDS011;5186;59.472;18.048;2023-06-10T04:10:50;9.13;;;4.33;;
10281;SDS011;5186;59.472;18.048;2023-06-10T04:13:16;12.73;;;4.57;;
10281;SDS011;5186;59.472;18.048;2023-06-10T04:15:42;17.33;;;5.83;;
10281;SDS011;5186;59.472;18.048;2023-06-10T04:18:08;11.30;;;4.70;;
10281;SDS011;5186;59.472;18.048;2023-06-10T04:20:33;12.37;;;4.63;;
10281;SDS011;5186;59.472;18.048;2023-06-10T04:22:59;10.27;;;4.30;;
10281;SDS011;5186;59.472;18.048;2023-06-10T04:25:24;9.93;;;3.73;;
10281;SDS011;5186;59.472;18.048;2023-06-10T04:27:51;4.63;;;1.93;;
10281;SDS011;5186;59.472;18.048;2023-06-10T04:30:16;4.00;;;1.40;;
10281;SDS011;5186;59.472;18.048;2023-06-10T04:32:43;4.57;;;2.03;;
10281;SDS011;5186;59.472;18.048;2023-06-10T04:35:11;3.07;;;1.47;;
10281;SDS011;5186;59.472;18.048;2023-06-10T04:37:37;2.67;;;1.10;;
10281;SDS011;5186;59.472;18.048;2023-06-10T04:40:03;1.47;;;0.90;;
10281;SDS011;5186;59.472;18.048;2023-06-10T04:42:30;1.20;;;0.77;;
10281;SDS011;5186;59.472;18.048;2023-06-10T04:44:56;1.37;;;0.70;;
10281;SDS011;5186;59.472;18.048;2023-06-10T04:47:22;1.33;;;0.77;;
10281;SDS011;5186;59.472;18.048;2023-06-10T04:49:48;1.53;;;0.50;;
10281;SDS011;5186;59.472;18.048;2023-06-10T04:52:13;0.90;;;0.50;;
10281;SDS011;5186;59.472;18.048;2023-06-10T04:54:39;0.80;;;0.50;;
10281;SDS011;5186;59.472;18.048;2023-06-10T04:57:05;0.80;;;0.40;;
10281;SDS011;5186;59.472;18.048;2023-06-10T04:59:32;1.27;;;0.43;;
10281;SDS011;5186;59.472;18.048;2023-06-10T05:01:58;1.07;;;0.40;;
10281;SDS011;5186;59.472;18.048;2023-06-10T05:04:24;0.40;;;0.40;;
10281;SDS011;5186;59.472;18.048;2023-06-10T05:06:50;0.30;;;0.30;;
10281;SDS011;5186;59.472;18.048;2023-06-10T05:09:15;0.80;;;0.37;;
10281;SDS011;5186;59.472;18.048;2023-06-10T05:11:41;0.53;;;0.40;;
10281;SDS011;5186;59.472;18.048;2023-06-10T05:14:07;0.60;;;0.60;;
10281;SDS011;5186;59.472;18.048;2023-06-10T05:16:32;1.63;;;0.40;;
10281;SDS011;5186;59.472;18.048;2023-06-10T05:18:58;0.93;;;0.30;;
10281;SDS011;5186;59.472;18.048;2023-06-10T05:21:24;0.20;;;0.20;;
10281;SDS011;5186;59.472;18.048;2023-06-10T05:23:49;0.67;;;0.33;;
10281;SDS011;5186;59.472;18.048;2023-06-10T05:26:15;0.20;;;0.20;;
10281;SDS011;5186;59.472;18.048;2023-06-10T05:28:42;0.30;;;0.30;;
10281;SDS011;5186;59.472;18.048;2023-06-10T05:31:08;0.27;;;0.27;;
10281;SDS011;5186;59.472;18.048;2023-06-10T05:33:34;0.40;;;0.40;;
10281;SDS011;5186;59.472;18.048;2023-06-10T05:35:59;1.03;;;0.30;;
10281;SDS011;5186;59.472;18.048;2023-06-10T05:38:25;0.30;;;0.30;;
10281;SDS011;5186;59.472;18.048;2023-06-10T05:40:50;1.07;;;0.50;;
10281;SDS011;5186;59.472;18.048;2023-06-10T05:43:16;0.73;;;0.40;;
10281;SDS011;5186;59.472;18.048;2023-06-10T05:45:42;1.07;;;0.30;;
10281;SDS011;5186;59.472;18.048;2023-06-10T05:48:07;1.40;;;0.50;;
10281;SDS011;5186;59.472;18.048;2023-06-10T05:50:33;1.43;;;0.30;;
10281;SDS011;5186;59.472;18.048;2023-06-10T05:53:03;0.63;;;0.50;;
10281;SDS011;5186;59.472;18.048;2023-06-10T05:55:31;0.40;;;0.40;;
10281;SDS011;5186;59.472;18.048;2023-06-10T05:58:00;0.83;;;0.40;;
10281;SDS011;5186;59.472;18.048;2023-06-10T06:00:26;0.40;;;0.40;;
10281;SDS011;5186;59.472;18.048;2023-06-10T06:02:52;0.57;;;0.50;;
10281;SDS011;5186;59.472;18.048;2023-06-10T06:05:19;0.50;;;0.43;;
10281;SDS011;5186;59.472;18.048;2023-06-10T06:07:44;0.43;;;0.40;;
10281;SDS011;5186;59.472;18.048;2023-06-10T06:10:10;0.87;;;0.50;;
10281;SDS011;5186;59.472;18.048;2023-06-10T06:12:36;0.57;;;0.37;;
10281;SDS011;5186;59.472;18.048;2023-06-10T06:15:01;1.23;;;0.40;;
10281;SDS011;5186;59.472;18.048;2023-06-10T06:17:28;0.40;;;0.40;;
10281;SDS011;5186;59.472;18.048;2023-06-10T06:19:53;1.03;;;0.40;;
10281;SDS011;5186;59.472;18.048;2023-06-10T06:22:19;2.00;;;0.60;;
10281;SDS011;5186;59.472;18.048;2023-06-10T06:24:47;1.23;;;0.40;;
10281;SDS011;5186;59.472;18.048;2023-06-10T06:27:12;0.60;;;0.57;;
10281;SDS011;5186;59.472;18.048;2023-06-10T06:29:38;0.40;;;0.40;;
10281;SDS011;5186;59.472;18.048;2023-06-10T06:32:04;0.47;;;0.30;;
10281;SDS011;5186;59.472;18.048;2023-06-10T06:34:29;0.40;;;0.40;;
10281;SDS011;5186;59.472;18.048;2023-06-10T06:36:55;0.50;;;0.50;;
10281;SDS011;5186;59.472;18.048;2023-06-10T06:39:21;0.43;;;0.40;;
10281;SDS011;5186;59.472;18.048;2023-06-10T06:41:46;0.30;;;0.30;;
10281;SDS011;5186;59.472;18.048;2023-06-10T06:44:12;0.50;;;0.50;;
10281;SDS011;5186;59.472;18.048;2023-06-10T06:46:38;0.90;;;0.43;;
10281;SDS011;5186;59.472;18.048;2023-06-10T06:49:03;0.40;;;0.40;;
10281;SDS011;5186;59.472;18.048;2023-06-10T06:51:29;0.60;;;0.60;;
10281;SDS011;5186;59.472;18.048;2023-06-10T06:53:55;0.57;;;0.43;;
10281;SDS011;5186;59.472;18.048;2023-06-10T06:56:23;0.70;;;0.60;;
10281;SDS011;5186;59.472;18.048;2023-06-10T06:58:51;0.70;;;0.30;;
10281;SDS011;5186;59.472;18.048;2023-06-10T07:01:16;0.67;;;0.60;;
10281;SDS011;5186;59.472;18.048;2023-06-10T07:03:42;0.57;;;0.50;;
10281;SDS011;5186;59.472;18.048;2023-06-10T07:06:07;0.60;;;0.40;;
10281;SDS011;5186;59.472;18.048;2023-06-10T07:08:33;1.70;;;0.30;;
10281;SDS011;5186;59.472;18.048;2023-06-10T07:10:59;2.47;;;0.50;;
10281;SDS011;5186;59.472;18.048;2023-06-10T07:13:24;1.07;;;0.70;;
10281;SDS011;5186;59.472;18.048;2023-06-10T07:15:50;1.63;;;0.47;;
10281;SDS011;5186;59.472;18.048;2023-06-10T07:18:15;1.00;;;0.40;;
10281;SDS011;5186;59.472;18.048;2023-06-10T07:20:42;0.70;;;0.50;;
10281;SDS011;5186;59.472;18.048;2023-06-10T07:23:07;0.80;;;0.40;;
10281;SDS011;5186;59.472;18.048;2023-06-10T07:25:33;2.00;;;0.50;;
10281;SDS011;5186;59.472;18.048;2023-06-10T07:27:58;0.40;;;0.40;;
10281;SDS011;5186;59.472;18.048;2023-06-10T07:30:24;0.50;;;0.50;;
10281;SDS011;5186;59.472;18.048;2023-06-10T07:32:50;0.40;;;0.40;;
10281;SDS011;5186;59.472;18.048;2023-06-10T07:35:16;0.40;;;0.40;;
10281;SDS011;5186;59.472;18.048;2023-06-10T07:37:42;0.40;;;0.40;;
10281;SDS011;5186;59.472;18.048;2023-06-10T07:40:07;1.10;;;0.40;;
10281;SDS011;5186;59.472;18.048;2023-06-10T07:42:34;0.30;;;0.30;;
10281;SDS011;5186;59.472;18.048;2023-06-10T07:45:01;0.50;;;0.50;;
10281;SDS011;5186;59.472;18.048;2023-06-10T07:47:28;0.80;;;0.53;;
10281;SDS011;5186;59.472;18.048;2023-06-10T07:49:54;0.40;;;0.40;;
10281;SDS011;5186;59.472;18.048;2023-06-10T07:52:19;0.40;;;0.40;;
10281;SDS011;5186;59.472;18.048;2023-06-10T07:54:45;0.80;;;0.37;;
10281;SDS011;5186;59.472;18.048;2023-06-10T07:57:11;0.40;;;0.30;;
10281;SDS011;5186;59.472;18.048;2023-06-10T07:59:36;0.90;;;0.40;;
10281;SDS011;5186;59.472;18.048;2023-06-10T08:02:02;0.37;;;0.30;;
10281;SDS011;5186;59.472;18.048;2023-06-10T08:04:28;1.00;;;0.40;;
10281;SDS011;5186;59.472;18.048;2023-06-10T08:06:55;1.60;;;0.50;;
10281;SDS011;5186;59.472;18.048;2023-06-10T08:09:21;1.53;;;0.30;;
10281;SDS011;5186;59.472;18.048;2023-06-10T08:11:48;0.30;;;0.30;;
10281;SDS011;5186;59.472;18.048;2023-06-10T08:14:14;1.40;;;0.40;;
10281;SDS011;5186;59.472;18.048;2023-06-10T08:16:40;0.40;;;0.40;;
10281;SDS011;5186;59.472;18.048;2023-06-10T08:19:06;1.57;;;0.40;;
10281;SDS011;5186;59.472;18.048;2023-06-10T08:21:34;0.60;;;0.40;;
10281;SDS011;5186;59.472;18.048;2023-06-10T08:24:01;0.50;;;0.50;;
10281;SDS011;5186;59.472;18.048;2023-06-10T08:26:27;0.40;;;0.40;;
10281;SDS011;5186;59.472;18.048;2023-06-10T08:28:52;2.60;;;0.40;;
10281;SDS011;5186;59.472;18.048;2023-06-10T08:31:19;0.47;;;0.40;;
10281;SDS011;5186;59.472;18.048;2023-06-10T08:33:45;0.80;;;0.57;;
10281;SDS011;5186;59.472;18.048;2023-06-10T08:36:10;0.80;;;0.43;;
10281;SDS011;5186;59.472;18.048;2023-06-10T08:38:36;0.40;;;0.40;;
10281;SDS011;5186;59.472;18.048;2023-06-10T08:41:02;2.20;;;0.70;;
10281;SDS011;5186;59.472;18.048;2023-06-10T08:43:42;0.60;;;0.60;;
10281;SDS011;5186;59.472;18.048;2023-06-10T08:46:11;0.93;;;0.40;;
10281;SDS011;5186;59.472;18.048;2023-06-10T08:48:41;1.47;;;0.50;;
10281;SDS011;5186;59.472;18.048;2023-06-10T08:51:09;0.30;;;0.30;;
10281;SDS011;5186;59.472;18.048;2023-06-10T08:53:36;0.50;;;0.50;;
10281;SDS011;5186;59.472;18.048;2023-06-10T08:56:06;0.33;;;0.33;;
10281;SDS011;5186;59.472;18.048;2023-06-10T08:58:33;0.40;;;0.40;;
10281;SDS011;5186;59.472;18.048;2023-06-10T09:01:05;0.63;;;0.50;;
10281;SDS011;5186;59.472;18.048;2023-06-10T09:03:31;1.90;;;0.93;;
10281;SDS011;5186;59.472;18.048;2023-06-10T09:05:56;0.30;;;0.30;;
10281;SDS011;5186;59.472;18.048;2023-06-10T09:08:22;2.87;;;0.40;;
10281;SDS011;5186;59.472;18.048;2023-06-10T09:10:48;0.40;;;0.40;;
10281;SDS011;5186;59.472;18.048;2023-06-10T09:13:14;0.63;;;0.60;;
10281;SDS011;5186;59.472;18.048;2023-06-10T09:15:43;0.57;;;0.40;;
10281;SDS011;5186;59.472;18.048;2023-06-10T09:18:10;1.97;;;0.47;;
10281;SDS011;5186;59.472;18.048;2023-06-10T09:20:38;1.10;;;0.70;;
10281;SDS011;5186;59.472;18.048;2023-06-10T09:23:04;0.63;;;0.50;;
10281;SDS011;5186;59.472;18.048;2023-06-10T09:25:37;0.63;;;0.40;;
10281;SDS011;5186;59.472;18.048;2023-06-10T09:28:03;0.50;;;0.50;;
10281;SDS011;5186;59.472;18.048;2023-06-10T09:30:30;0.50;;;0.50;;
10281;SDS011;5186;59.472;18.048;2023-06-10T09:33:00;0.80;;;0.40;;
10281;SDS011;5186;59.472;18.048;2023-06-10T09:35:27;0.53;;;0.53;;
10281;SDS011;5186;59.472;18.048;2023-06-10T09:37:54;1.43;;;0.50;;
10281;SDS011;5186;59.472;18.048;2023-06-10T09:40:24;0.40;;;0.40;;
10281;SDS011;5186;59.472;18.048;2023-06-10T09:42:54;0.47;;;0.40;;
10281;SDS011;5186;59.472;18.048;2023-06-10T09:45:21;2.53;;;0.50;;
10281;SDS011;5186;59.472;18.048;2023-06-10T09:47:47;1.37;;;0.50;;
10281;SDS011;5186;59.472;18.048;2023-06-10T09:50:16;0.53;;;0.40;;
10281;SDS011;5186;59.472;18.048;2023-06-10T09:52:42;2.43;;;0.60;;
10281;SDS011;5186;59.472;18.048;2023-06-10T09:55:08;10.00;;;0.90;;
10281;SDS011;5186;59.472;18.048;2023-06-10T09:57:35;1.63;;;0.50;;
10281;SDS011;5186;59.472;18.048;2023-06-10T10:00:05;2.50;;;0.40;;
10281;SDS011;5186;59.472;18.048;2023-06-10T10:02:32;1.60;;;0.37;;
10281;SDS011;5186;59.472;18.048;2023-06-10T10:05:19;0.67;;;0.50;;
10281;SDS011;5186;59.472;18.048;2023-06-10T10:07:46;0.50;;;0.40;;
10281;SDS011;5186;59.472;18.048;2023-06-10T10:10:13;0.87;;;0.60;;
10281;SDS011;5186;59.472;18.048;2023-06-10T10:12:40;0.47;;;0.40;;
10281;SDS011;5186;59.472;18.048;2023-06-10T10:15:06;0.70;;;0.63;;
10281;SDS011;5186;59.472;18.048;2023-06-10T10:17:44;0.50;;;0.50;;
10281;SDS011;5186;59.472;18.048;2023-06-10T10:20:14;0.40;;;0.40;;
10281;SDS011;5186;59.472;18.048;2023-06-10T10:22:43;0.60;;;0.60;;
10281;SDS011;5186;59.472;18.048;2023-06-10T10:28:08;0.70;;;0.40;;
10281;SDS011;5186;59.472;18.048;2023-06-10T10:30:39;0.50;;;0.50;;
10281;SDS011;5186;59.472;18.048;2023-06-10T10:33:12;0.70;;;0.70;;
10281;SDS011;5186;59.472;18.048;2023-06-10T10:35:43;0.80;;;0.60;;
10281;SDS011;5186;59.472;18.048;2023-06-10T10:38:10;1.23;;;0.50;;
10281;SDS011;5186;59.472;18.048;2023-06-10T10:40:36;1.40;;;0.53;;
10281;SDS011;5186;59.472;18.048;2023-06-10T10:43:03;1.40;;;0.55;;
10281;SDS011;5186;59.472;18.048;2023-06-10T10:45:29;1.30;;;0.47;;
10281;SDS011;5186;59.472;18.048;2023-06-10T10:47:55;0.50;;;0.50;;
10281;SDS011;5186;59.472;18.048;2023-06-10T10:50:21;0.97;;;0.40;;
10281;SDS011;5186;59.472;18.048;2023-06-10T10:55:20;1.17;;;0.70;;
10281;SDS011;5186;59.472;18.048;2023-06-10T10:58:23;0.50;;;0.50;;
10281;SDS011;5186;59.472;18.048;2023-06-10T11:00:44;0.83;;;0.50;;
10281;SDS011;5186;59.472;18.048;2023-06-10T11:03:14;0.60;;;0.60;;
10281;SDS011;5186;59.472;18.048;2023-06-10T11:05:44;0.60;;;0.60;;
10281;SDS011;5186;59.472;18.048;2023-06-10T11:08:13;1.03;;;0.60;;
10281;SDS011;5186;59.472;18.048;2023-06-10T11:10:41;1.53;;;0.53;;
10281;SDS011;5186;59.472;18.048;2023-06-10T11:13:15;0.53;;;0.50;;
10281;SDS011;5186;59.472;18.048;2023-06-10T11:15:46;1.10;;;0.60;;
10281;SDS011;5186;59.472;18.048;2023-06-10T11:31:23;0.53;;;0.50;;
10281;SDS011;5186;59.472;18.048;2023-06-10T11:34:03;1.27;;;0.50;;
10281;SDS011;5186;59.472;18.048;2023-06-10T11:36:31;0.67;;;0.50;;
10281;SDS011;5186;59.472;18.048;2023-06-10T11:38:59;1.80;;;0.60;;
10281;SDS011;5186;59.472;18.048;2023-06-10T11:41:27;0.50;;;0.50;;
10281;SDS011;5186;59.472;18.048;2023-06-10T11:43:54;1.03;;;0.60;;
10281;SDS011;5186;59.472;18.048;2023-06-10T11:46:23;0.80;;;0.60;;
10281;SDS011;5186;59.472;18.048;2023-06-10T11:48:53;0.93;;;0.53;;
10281;SDS011;5186;59.472;18.048;2023-06-10T11:51:24;1.17;;;0.70;;
10281;SDS011;5186;59.472;18.048;2023-06-10T11:53:51;3.10;;;0.60;;
10281;SDS011;5186;59.472;18.048;2023-06-10T11:56:24;0.60;;;0.60;;
10281;SDS011;5186;59.472;18.048;2023-06-10T11:58:53;2.10;;;0.70;;
10281;SDS011;5186;59.472;18.048;2023-06-10T12:01:20;0.73;;;0.67;;
10281;SDS011;5186;59.472;18.048;2023-06-10T12:03:47;0.50;;;0.50;;
10281;SDS011;5186;59.472;18.048;2023-06-10T12:06:13;0.73;;;0.60;;
10281;SDS011;5186;59.472;18.048;2023-06-10T12:08:42;0.83;;;0.60;;
10281;SDS011;5186;59.472;18.048;2023-06-10T12:11:08;1.43;;;0.60;;
10281;SDS011;5186;59.472;18.048;2023-06-10T12:13:34;3.07;;;0.70;;
10281;SDS011;5186;59.472;18.048;2023-06-10T12:16:09;1.53;;;0.67;;
10281;SDS011;5186;59.472;18.048;2023-06-10T12:18:35;0.97;;;0.67;;
10281;SDS011;5186;59.472;18.048;2023-06-10T12:21:00;0.70;;;0.60;;
10281;SDS011;5186;59.472;18.048;2023-06-10T12:23:28;0.60;;;0.60;;
10281;SDS011;5186;59.472;18.048;2023-06-10T12:25:54;0.60;;;0.47;;
10281;SDS011;5186;59.472;18.048;2023-06-10T12:28:24;0.40;;;0.40;;
10281;SDS011;5186;59.472;18.048;2023-06-10T12:30:51;0.60;;;0.60;;
10281;SDS011;5186;59.472;18.048;2023-06-10T12:33:17;1.87;;;0.50;;
10281;SDS011;5186;59.472;18.048;2023-06-10T12:35:49;0.87;;;0.60;;
10281;SDS011;5186;59.472;18.048;2023-06-10T12:38:20;0.50;;;0.50;;
10281;SDS011;5186;59.472;18.048;2023-06-10T12:40:52;0.70;;;0.50;;
10281;SDS011;5186;59.472;18.048;2023-06-10T12:43:22;0.57;;;0.50;;
10281;SDS011;5186;59.472;18.048;2023-06-10T12:45:49;1.40;;;0.60;;
10281;SDS011;5186;59.472;18.048;2023-06-10T12:48:18;1.60;;;0.60;;
10281;SDS011;5186;59.472;18.048;2023-06-10T12:50:49;0.50;;;0.40;;
10281;SDS011;5186;59.472;18.048;2023-06-10T12:53:23;0.53;;;0.50;;
10281;SDS011;5186;59.472;18.048;2023-06-10T12:55:50;2.63;;;0.60;;
10281;SDS011;5186;59.472;18.048;2023-06-10T12:58:16;0.60;;;0.60;;
10281;SDS011;5186;59.472;18.048;2023-06-10T13:00:42;1.33;;;0.70;;
10281;SDS011;5186;59.472;18.048;2023-06-10T13:03:08;1.70;;;0.83;;
10281;SDS011;5186;59.472;18.048;2023-06-10T13:05:35;1.53;;;0.30;;
10281;SDS011;5186;59.472;18.048;2023-06-10T13:08:03;0.87;;;0.57;;
10281;SDS011;5186;59.472;18.048;2023-06-10T13:10:33;0.70;;;0.67;;
10281;SDS011;5186;59.472;18.048;2023-06-10T13:13:00;1.83;;;0.50;;
10281;SDS011;5186;59.472;18.048;2023-06-10T13:15:26;0.63;;;0.53;;
10281;SDS011;5186;59.472;18.048;2023-06-10T13:17:52;0.93;;;0.50;;
10281;SDS011;5186;59.472;18.048;2023-06-10T13:20:18;0.70;;;0.60;;
10281;SDS011;5186;59.472;18.048;2023-06-10T13:22:45;1.20;;;0.60;;
10281;SDS011;5186;59.472;18.048;2023-06-10T13:25:11;1.47;;;0.70;;
10281;SDS011;5186;59.472;18.048;2023-06-10T13:27:37;1.03;;;0.60;;
10281;SDS011;5186;59.472;18.048;2023-06-10T13:30:07;0.60;;;0.60;;
10281;SDS011;5186;59.472;18.048;2023-06-10T13:32:33;1.70;;;0.60;;
10281;SDS011;5186;59.472;18.048;2023-06-10T13:34:59;0.60;;;0.60;;
10281;SDS011;5186;59.472;18.048;2023-06-10T13:37:25;0.60;;;0.60;;
10281;SDS011;5186;59.472;18.048;2023-06-10T13:39:51;0.60;;;0.50;;
10281;SDS011;5186;59.472;18.048;2023-06-10T13:42:20;1.33;;;0.67;;
10281;SDS011;5186;59.472;18.048;2023-06-10T13:44:46;1.40;;;0.70;;
10281;SDS011;5186;59.472;18.048;2023-06-10T13:47:12;1.50;;;0.60;;
10281;SDS011;5186;59.472;18.048;2023-06-10T13:49:38;1.50;;;0.77;;
10281;SDS011;5186;59.472;18.048;2023-06-10T13:52:05;1.80;;;0.50;;
10281;SDS011;5186;59.472;18.048;2023-06-10T13:54:31;0.93;;;0.40;;
10281;SDS011;5186;59.472;18.048;2023-06-10T13:56:57;1.17;;;0.60;;
10281;SDS011;5186;59.472;18.048;2023-06-10T13:59:22;3.30;;;0.60;;
10281;SDS011;5186;59.472;18.048;2023-06-10T14:01:48;0.60;;;0.60;;
10281;SDS011;5186;59.472;18.048;2023-06-10T14:04:13;1.63;;;0.80;;
10281;SDS011;5186;59.472;18.048;2023-06-10T14:06:39;1.33;;;0.60;;
10281;SDS011;5186;59.472;18.048;2023-06-10T14:09:05;2.57;;;0.60;;
10281;SDS011;5186;59.472;18.048;2023-06-10T14:11:30;1.80;;;0.67;;
10281;SDS011;5186;59.472;18.048;2023-06-10T14:13:56;1.03;;;0.50;;
10281;SDS011;5186;59.472;18.048;2023-06-10T14:16:22;0.77;;;0.50;;
10281;SDS011;5186;59.472;18.048;2023-06-10T14:18:48;1.67;;;0.50;;
10281;SDS011;5186;59.472;18.048;2023-06-10T14:21:15;3.27;;;0.70;;
10281;SDS011;5186;59.472;18.048;2023-06-10T14:23:41;1.53;;;0.60;;
10281;SDS011;5186;59.472;18.048;2023-06-10T14:26:08;0.70;;;0.50;;
10281;SDS011;5186;59.472;18.048;2023-06-10T14:28:33;0.80;;;0.50;;
10281;SDS011;5186;59.472;18.048;2023-06-10T14:30:59;1.43;;;0.50;;
10281;SDS011;5186;59.472;18.048;2023-06-10T14:33:25;1.17;;;0.50;;
10281;SDS011;5186;59.472;18.048;2023-06-10T14:35:50;0.57;;;0.40;;
10281;SDS011;5186;59.472;18.048;2023-06-10T14:38:16;0.50;;;0.50;;
10281;SDS011;5186;59.472;18.048;2023-06-10T14:40:41;0.80;;;0.80;;
10281;SDS011;5186;59.472;18.048;2023-06-10T14:43:07;0.90;;;0.50;;
10281;SDS011;5186;59.472;18.048;2023-06-10T14:45:35;0.60;;;0.53;;
10281;SDS011;5186;59.472;18.048;2023-06-10T14:48:02;1.27;;;1.00;;
10281;SDS011;5186;59.472;18.048;2023-06-10T14:50:28;17.07;;;3.37;;
10281;SDS011;5186;59.472;18.048;2023-06-10T14:52:53;10.87;;;5.67;;
10281;SDS011;5186;59.472;18.048;2023-06-10T14:55:19;28.07;;;19.67;;
10281;SDS011;5186;59.472;18.048;2023-06-10T14:57:45;3.70;;;1.93;;
10281;SDS011;5186;59.472;18.048;2023-06-10T15:00:11;1.10;;;0.67;;
10281;SDS011;5186;59.472;18.048;2023-06-10T15:02:40;8.43;;;6.87;;